Terminal Aerodrome Forecast
Issued by NWS

Home | Current Version | Previous Version | Text Only | Print | Product List | Glossary On
Versions: 1 2 3 4 5 6 7 8 9 10 11 12 13 14 15 16 17 18 19 20 21 22 23 24 25 26 27 28 29 30 31 32 33 34 35 36 37 38 39 40
597
FTUS46 KOTX 190934 AAA
TAFMWH
TAF AMD
KMWH 190934Z 1910/2006 VRB03KT 4SM BR OVC011
     FM191200 17003KT 3SM BR OVC008
     FM191900 16003KT 5SM BR OVC012
     FM200200 15004KT 5SM BR VCSH SCT009 OVC030=

USA.gov is the U.S. government's official web portal to all federal, state and local government web resources and services.